Time;durP1;ratioP1;P1;durP2;ratioP2;P2;SDS_P1;SDS_P2;PMS_P1;PMS_P2;Temp;Humidity;BMP_temperature;BMP_pressure;BME280_temperature;BME280_humidity;BME280_pressure;Samples;Min_cycle;Max_cycle;Signal;HPM_P1;HPM_P2
2021/10/27 00:01:05;;;;;;;21.33;13.23;;;;;;;9.14;100.00;101295.89;4955777;58;1143403;-75
2021/10/27 00:06:11;;;;;;;19.03;11.53;;;;;;;9.12;100.00;101299.08;5027080;58;1143658;-76
2021/10/27 00:11:18;;;;;;;24.57;13.93;;;;;;;9.12;100.00;101297.77;5026483;58;1143279;-76
2021/10/27 00:16:24;;;;;;;20.97;13.13;;;;;;;9.12;99.80;101308.32;5116403;56;1143263;-77
2021/10/27 00:21:30;;;;;;;22.10;13.13;;;;;;;9.14;99.81;101313.89;5132286;56;1141198;-75
2021/10/27 00:26:36;;;;;;;28.37;13.30;;;;;;;9.12;100.00;101313.12;5132385;56;1141221;-75
2021/10/27 00:31:44;;;;;;;21.40;13.43;;;;;;;9.10;100.00;101322.92;5132343;56;1143220;-76
2021/10/27 00:36:50;;;;;;;24.30;12.57;;;;;;;9.15;100.00;101326.62;5123882;57;1143365;-76
2021/10/27 00:41:56;;;;;;;19.07;11.70;;;;;;;9.18;100.00;101327.27;5146549;56;1143341;-77
2021/10/27 00:47:08;;;;;;;23.07;12.20;;;;;;;9.18;100.00;101324.63;5206082;55;1143252;-76
2021/10/27 00:52:17;;;;;;;18.57;10.80;;;;;;;9.20;99.86;101326.33;5198386;55;1143222;-76
2021/10/27 00:57:25;;;;;;;19.17;10.70;;;;;;;9.22;99.67;101328.41;5198450;56;1141346;-76
2021/10/27 01:02:33;;;;;;;18.50;10.23;;;;;;;9.21;99.88;101322.75;5198519;56;1141166;-77
2021/10/27 01:07:39;;;;;;;19.47;12.53;;;;;;;9.16;100.00;101324.36;5198308;56;1141164;-75
2021/10/27 01:12:46;;;;;;;20.80;12.60;;;;;;;9.15;100.00;101318.70;5198094;56;1143272;-77
2021/10/27 01:17:52;;;;;;;19.40;11.43;;;;;;;9.12;100.00;101305.21;5156546;56;1143573;-76
2021/10/27 01:22:58;;;;;;;14.53;10.27;;;;;;;9.16;100.00;101310.70;5107114;57;1143234;-75
2021/10/27 01:28:04;;;;;;;13.30;8.50;;;;;;;9.15;100.00;101301.55;5106253;57;1143402;-75
2021/10/27 01:33:10;;;;;;;17.93;9.93;;;;;;;9.14;100.00;101296.73;5106153;57;1141179;-75
2021/10/27 01:38:16;;;;;;;17.80;9.17;;;;;;;9.11;100.00;101290.31;5105898;57;1141201;-74
2021/10/27 01:43:22;;;;;;;15.78;8.60;;;;;;;9.11;100.00;101303.98;5108008;57;1141119;-76
2021/10/27 01:48:27;;;;;;;24.93;11.60;;;;;;;9.08;100.00;101303.69;5122805;56;1141127;-75
2021/10/27 01:53:34;;;;;;;14.73;10.20;;;;;;;9.05;100.00;101307.81;5189308;56;1143346;-76
2021/10/27 01:58:39;;;;;;;12.50;9.43;;;;;;;9.01;100.00;101299.69;5224587;56;1143305;-76
2021/10/27 02:03:46;;;;;;;18.10;11.33;;;;;;;8.99;100.00;101301.59;5198330;56;1141232;-75
2021/10/27 02:08:52;;;;;;;21.00;11.57;;;;;;;9.02;100.00;101300.08;5270183;55;1143231;-76
2021/10/27 02:13:58;;;;;;;12.73;8.10;;;;;;;9.05;100.00;101292.45;5295310;55;1143442;-76
2021/10/27 02:19:06;;;;;;;18.90;10.83;;;;;;;9.06;100.00;101299.43;5150701;56;1141240;-76
2021/10/27 02:24:12;;;;;;;13.37;9.53;;;;;;;9.04;100.00;101291.60;5109060;57;1141145;-75
2021/10/27 02:29:17;;;;;;;13.63;8.50;;;;;;;9.09;100.00;101296.15;5098426;57;1138991;-75
2021/10/27 02:34:23;;;;;;;14.97;9.50;;;;;;;9.11;100.00;101288.14;5098059;57;1139123;-77
2021/10/27 02:39:29;;;;;;;16.03;9.00;;;;;;;9.10;100.00;101282.02;5098149;58;1139048;-75
2021/10/27 02:44:36;;;;;;;15.17;7.77;;;;;;;9.07;100.00;101287.94;5098626;57;1139038;-76
2021/10/27 02:49:42;;;;;;;12.00;8.77;;;;;;;9.06;100.00;101285.77;5110546;56;1139464;-76
2021/10/27 02:54:48;;;;;;;22.23;11.10;;;;;;;9.06;100.00;101278.32;5120001;57;1139307;-75
2021/10/27 02:59:54;;;;;;;14.73;10.17;;;;;;;9.04;100.00;101277.56;5120105;56;1141229;-76
2021/10/27 03:04:59;;;;;;;20.00;10.00;;;;;;;9.02;100.00;101286.88;5121080;56;1141237;-75
2021/10/27 03:10:06;;;;;;;18.63;10.23;;;;;;;9.00;100.00;101279.55;5121946;57;1141081;-76
2021/10/27 03:15:12;;;;;;;13.67;8.00;;;;;;;8.99;100.00;101283.13;5092947;57;1141191;-75
2021/10/27 03:20:18;;;;;;;14.53;8.90;;;;;;;8.96;100.00;101293.01;5141467;57;1138977;-75
2021/10/27 03:25:24;;;;;;;17.87;9.00;;;;;;;8.91;100.00;101297.22;5133958;56;1139114;-75
2021/10/27 03:30:30;;;;;;;19.13;10.73;;;;;;;8.88;100.00;101299.18;5130004;56;1139333;-75
2021/10/27 03:35:37;;;;;;;19.32;9.98;;;;;;;8.89;100.00;101296.92;5130109;57;1141100;-75
2021/10/27 03:40:45;;;;;;;13.73;9.00;;;;;;;8.84;100.00;101292.41;5129395;57;1139050;-74
2021/10/27 03:45:51;;;;;;;14.60;8.93;;;;;;;8.83;100.00;101299.47;5129711;57;1139087;-76
2021/10/27 03:50:57;;;;;;;19.30;9.93;;;;;;;8.79;100.00;101296.16;5168433;56;1139360;-75
2021/10/27 03:56:03;;;;;;;19.43;11.20;;;;;;;8.75;100.00;101298.58;5271427;56;1136865;-75
2021/10/27 04:01:09;;;;;;;13.30;7.97;;;;;;;8.72;100.00;101302.70;5292306;56;22377;-75
2021/10/27 04:06:15;;;;;;;12.30;7.37;;;;;;;8.72;100.00;101313.72;5272496;56;1136929;-75
2021/10/27 04:11:20;;;;;;;13.93;8.33;;;;;;;8.69;100.00;101311.28;5270958;56;1141068;-75
2021/10/27 04:16:26;;;;;;;10.53;7.60;;;;;;;8.67;100.00;101303.92;5279743;56;1140993;-75
2021/10/27 04:21:33;;;;;;;15.68;9.13;;;;;;;8.65;100.00;101307.11;5278183;56;1141106;-74
2021/10/27 04:26:39;;;;;;;17.10;10.67;;;;;;;8.63;100.00;101310.30;5118209;57;1141087;-74
2021/10/27 04:31:45;;;;;;;19.70;8.43;;;;;;;8.59;100.00;101300.86;5136756;55;1143228;-74
2021/10/27 04:36:51;;;;;;;13.73;7.90;;;;;;;8.53;100.00;101301.22;5311564;55;1141110;-73
2021/10/27 04:41:57;;;;;;;12.87;10.00;;;;;;;8.48;100.00;101305.43;5311457;55;1141089;-76
2021/10/27 04:47:04;;;;;;;20.93;9.50;;;;;;;8.43;100.00;101310.09;5311419;55;1143217;-74
2021/10/27 04:52:10;;;;;;;10.10;6.93;;;;;;;8.40;100.00;101311.61;5311367;55;1141140;-75
2021/10/27 04:57:15;;;;;;;10.37;7.10;;;;;;;8.38;100.00;101315.65;5308959;55;1141142;-74
2021/10/27 05:02:21;;;;;;;16.27;9.93;;;;;;;8.36;100.00;101315.34;5260554;55;1141170;-75
2021/10/27 05:07:27;;;;;;;15.13;8.93;;;;;;;8.37;100.00;101314.41;5301563;55;1141319;-74
2021/10/27 05:12:33;;;;;;;15.80;9.87;;;;;;;8.36;100.00;101320.63;5299867;55;1141086;-75
2021/10/27 05:17:38;;;;;;;12.97;8.07;;;;;;;8.30;100.00;101309.91;5290197;55;1141112;-74
2021/10/27 05:22:44;;;;;;;13.57;7.77;;;;;;;8.31;100.00;101308.13;5289951;55;1141175;-74
2021/10/27 05:27:50;;;;;;;18.47;10.37;;;;;;;8.28;100.00;101313.56;5289746;55;1141093;-74
2021/10/27 05:32:58;;;;;;;18.43;10.33;;;;;;;8.27;100.00;101320.61;5244904;55;1143216;-74
2021/10/27 05:38:04;;;;;;;17.50;11.20;;;;;;;8.27;100.00;101328.52;5290115;55;1143236;-75
2021/10/27 05:43:18;;;;;;;16.90;8.43;;;;;;;8.25;100.00;101327.75;5290293;55;1143165;-75
2021/10/27 05:48:21;;;;;;;11.60;8.50;;;;;;;8.28;100.00;101323.63;5288426;55;1141244;-75
2021/10/27 05:58:53;;;;;;;16.50;9.87;;;;;;;8.30;100.00;101335.41;5288963;55;1141293;-75
2021/10/27 06:04:01;;;;;;;15.60;9.40;;;;;;;8.31;100.00;101345.02;5289704;54;1141129;-75
2021/10/27 06:09:07;;;;;;;20.90;9.27;;;;;;;8.34;100.00;101351.48;5285263;55;1141211;-75
2021/10/27 06:14:15;;;;;;;11.93;7.60;;;;;;;8.36;100.00;101344.34;5290009;55;1141079;-76
2021/10/27 06:19:21;;;;;;;14.67;7.20;;;;;;;8.36;100.00;101351.78;5290253;55;1141680;-76
2021/10/27 06:24:28;;;;;;;12.50;9.13;;;;;;;8.41;100.00;101347.09;5290079;55;1141141;-77
2021/10/27 06:29:41;;;;;;;9.53;7.03;;;;;;;8.45;100.00;101356.53;5289900;55;1141015;-77
2021/10/27 06:35:02;;;;;;;14.53;9.20;;;;;;;8.50;100.00;101348.38;5289752;55;1139690;-77
2021/10/27 06:50:37;;;;;;;18.55;11.00;;;;;;;8.65;100.00;101355.44;5290466;55;1139211;-77
2021/10/27 06:55:43;;;;;;;21.43;10.60;;;;;;;8.72;100.00;101362.05;5270225;55;1141047;-77
2021/10/27 07:00:53;;;;;;;19.07;11.80;;;;;;;8.77;100.00;101361.80;5269883;55;1141252;-77
2021/10/27 07:16:46;;;;;;;12.95;6.80;;;;;;;8.94;100.00;101364.33;5266497;56;1137026;-77
2021/10/27 07:21:52;;;;;;;14.00;10.17;;;;;;;9.03;100.00;101366.89;5103841;55;1141180;-78
2021/10/27 07:27:01;;;;;;;16.67;8.80;;;;;;;9.10;100.00;101373.53;5288078;56;1143095;-77
2021/10/27 07:32:08;;;;;;;12.63;7.70;;;;;;;9.15;100.00;101374.97;5297150;55;1141379;-77
2021/10/27 07:42:40;;;;;;;14.10;8.63;;;;;;;9.27;100.00;101392.34;5323948;55;1141160;-77
2021/10/27 07:47:46;;;;;;;12.73;7.90;;;;;;;9.33;100.00;101400.74;5300722;55;1141069;-77
2021/10/27 07:52:53;;;;;;;14.40;6.70;;;;;;;9.40;100.00;101390.69;5214327;55;1141167;-77
2021/10/27 07:58:02;;;;;;;14.23;7.87;;;;;;;9.44;100.00;101393.06;5230553;55;1141254;-77
2021/10/27 08:03:08;;;;;;;10.87;6.87;;;;;;;9.48;100.00;101393.71;5312814;55;1141130;-77
2021/10/27 08:08:18;;;;;;;16.50;8.43;;;;;;;9.54;100.00;101396.00;5313043;55;1141339;-78
2021/10/27 08:13:25;;;;;;;12.77;7.10;;;;;;;9.58;100.00;101387.44;5306723;55;1141111;-77
2021/10/27 08:18:31;;;;;;;17.97;9.30;;;;;;;9.65;100.00;101390.92;5313024;55;1141107;-77
2021/10/27 08:23:40;;;;;;;14.70;8.77;;;;;;;9.72;100.00;101385.66;5404861;54;1141097;-78
2021/10/27 08:29:00;;;;;;;13.00;7.90;;;;;;;9.80;100.00;101376.80;5312861;55;1141214;-76
2021/10/27 08:34:10;;;;;;;15.23;8.07;;;;;;;9.88;100.00;101380.30;5404784;54;1141120;-76
2021/10/27 08:39:15;;;;;;;12.73;7.57;;;;;;;9.95;100.00;101379.44;5404327;54;1141065;-76
2021/10/27 08:44:20;;;;;;;15.00;8.67;;;;;;;10.01;100.00;101382.56;5308049;55;1141375;-77
2021/10/27 08:49:29;;;;;;;8.70;5.67;;;;;;;10.03;100.00;101382.01;5397860;54;1143217;-76
2021/10/27 08:54:35;;;;;;;14.83;8.03;;;;;;;10.10;100.00;101387.28;5305725;55;1141130;-77
2021/10/27 08:59:53;;;;;;;17.13;8.77;;;;;;;10.18;99.89;101394.75;5391329;54;1143125;-77
2021/10/27 09:37:44;;;;;;;16.65;10.23;;;;;;;10.77;97.95;101415.28;5414942;54;1141087;-77
2021/10/27 10:04:12;;;;;;;12.63;5.47;;;;;;;10.94;97.81;101428.28;5312890;55;1141056;-76
2021/10/27 10:09:19;;;;;;;15.40;7.08;;;;;;;10.99;97.66;101430.64;5320199;55;1141116;-76
2021/10/27 10:14:29;;;;;;;20.77;8.30;;;;;;;11.03;97.81;101425.50;5320554;55;1141061;-77
2021/10/27 10:19:41;;;;;;;24.07;7.43;;;;;;;11.12;97.52;101419.16;5320387;55;1141078;-76
2021/10/27 10:24:45;;;;;;;10.97;5.90;;;;;;;11.26;98.05;101415.12;5320635;55;1141046;-76
2021/10/27 10:29:56;;;;;;;12.50;6.07;;;;;;;11.50;97.11;101408.65;5320374;55;1141013;-76
2021/10/27 10:35:10;;;;;;;56.43;18.57;;;;;;;11.72;95.86;101392.63;5320564;55;1141311;-76
2021/10/27 10:57:05;;;;;;;15.23;7.00;;;;;;;11.98;94.24;101397.01;5417516;54;1139047;-76
2021/10/27 11:24:06;;;;;;;15.00;5.60;;;;;;;12.79;92.97;101382.79;5407230;54;1141102;-76
2021/10/27 11:40:19;;;;;;;15.53;6.40;;;;;;;13.16;89.58;101396.88;5320959;55;1141201;-77
2021/10/27 11:45:41;;;;;;;15.77;6.00;;;;;;;13.11;89.63;101396.36;5414718;54;1141067;-76
2021/10/27 11:50:34;;;;;;;12.80;6.67;;;;;;;13.07;90.58;101386.91;5303275;55;1141086;-76
2021/10/27 11:55:41;;;;;;;9.27;5.33;;;;;;;13.11;91.00;101387.06;5416370;54;1141111;-77
2021/10/27 12:00:50;;;;;;;11.70;4.67;;;;;;;13.15;90.17;101387.20;5308110;55;1139182;-76
2021/10/27 12:06:21;;;;;;;8.23;4.17;;;;;;;13.14;89.85;101389.46;5393111;54;1141216;-76
2021/10/27 12:22:09;;;;;;;14.07;5.57;;;;;;;13.09;89.63;101382.81;5393538;54;1141086;-77
2021/10/27 12:27:27;;;;;;;10.30;4.97;;;;;;;13.10;90.40;101378.72;5382299;54;1139014;-76
2021/10/27 12:32:29;;;;;;;11.33;5.83;;;;;;;13.09;89.33;101373.05;5276789;55;1139034;-77
2021/10/27 12:37:45;;;;;;;9.17;3.80;;;;;;;13.15;89.76;101367.77;5372951;54;1139081;-76
2021/10/27 12:43:01;;;;;;;8.70;3.90;;;;;;;13.15;89.76;101367.77;5380247;54;1134784;-77
2021/10/27 12:48:18;;;;;;;4.47;3.87;;;;;;;13.22;89.52;101367.20;5312685;55;1139212;-77
2021/10/27 12:53:44;;;;;;;19.37;11.37;;;;;;;13.28;89.55;101361.92;5400359;54;1138982;-77
2021/10/27 12:59:02;;;;;;;13.17;6.17;;;;;;;13.40;88.91;101362.80;5404379;54;1143420;-77
2021/10/27 13:04:32;;;;;;;5.65;3.05;;;;;;;13.65;88.03;101351.48;5395997;54;1141064;-77
2021/10/27 13:15:16;;;;;;;7.50;3.93;;;;;;;14.12;85.05;101317.66;5402363;54;1139213;-78
2021/10/27 13:30:56;;;;;;;5.87;3.50;;;;;;;14.21;84.88;101336.88;5130526;57;1139040;-77
2021/10/27 13:35:57;;;;;;;9.43;4.30;;;;;;;14.32;85.33;101329.38;5129622;57;1139160;-78
2021/10/27 13:41:07;;;;;;;9.53;3.83;;;;;;;14.34;83.82;101326.12;5189238;57;1139085;-77
2021/10/27 13:46:23;;;;;;;5.77;3.10;;;;;;;14.37;84.04;101332.02;5192221;57;1139305;-78
2021/10/27 14:07:44;;;;;;;8.28;4.10;;;;;;;14.52;82.60;101335.77;5236787;55;1136824;-77
2021/10/27 14:12:55;;;;;;;6.47;3.67;;;;;;;14.15;83.12;101333.88;5236459;55;1137220;-77
2021/10/27 14:38:57;;;;;;;5.83;4.10;;;;;;;13.86;84.56;101337.50;5158294;56;1139056;-78
2021/10/27 15:33:13;;;;;;;13.63;4.90;;;;;;;13.10;88.61;101366.77;5216307;55;1136980;-77
2021/10/27 15:54:27;;;;;;;63.63;29.57;;;;;;;12.97;89.46;101384.58;5405090;54;1141106;-77
2021/10/27 15:59:33;;;;;;;45.57;24.20;;;;;;;12.95;89.49;101387.83;5404422;54;1143645;-77
2021/10/27 16:04:39;;;;;;;47.47;28.47;;;;;;;12.97;89.56;101383.25;5336688;55;1143404;-75
2021/10/27 16:09:48;;;;;;;49.13;41.60;;;;;;;12.96;89.58;101394.83;5362161;55;1143037;-76
2021/10/27 16:14:53;;;;;;;22.80;16.07;;;;;;;12.96;89.66;101389.05;5368589;54;1143172;-75
2021/10/27 16:19:59;;;;;;;24.30;21.55;;;;;;;12.96;89.67;101397.01;5405435;54;1143171;-75
2021/10/27 16:25:08;;;;;;;15.70;7.37;;;;;;;12.96;89.74;101400.14;5271779;55;1143234;-76
2021/10/27 16:30:15;;;;;;;20.17;11.40;;;;;;;12.97;89.82;101393.88;5383579;54;1141281;-76
2021/10/27 16:35:22;;;;;;;31.67;15.67;;;;;;;12.97;89.73;101388.08;5342032;54;1143148;-74
2021/10/27 16:40:28;;;;;;;41.00;14.80;;;;;;;12.96;89.91;101386.87;5401859;54;1143126;-76
2021/10/27 16:45:34;;;;;;;28.70;10.80;;;;;;;12.95;89.98;101405.93;5306177;55;1143153;-74
2021/10/27 16:50:39;;;;;;;23.52;9.40;;;;;;;12.95;90.09;101400.63;5288944;54;1143634;-74
2021/10/27 16:55:46;;;;;;;30.70;10.77;;;;;;;12.94;90.02;101398.08;5298194;54;1141099;-75
2021/10/27 17:00:51;;;;;;;30.70;13.70;;;;;;;12.94;90.15;101410.02;5343368;54;1143214;-75
2021/10/27 17:05:58;;;;;;;16.33;7.97;;;;;;;12.94;90.08;101418.84;5312581;54;1143135;-75
2021/10/27 17:11:04;;;;;;;12.80;6.23;;;;;;;12.95;90.24;101423.67;5241804;55;1141110;-76
2021/10/27 17:16:11;;;;;;;19.17;7.17;;;;;;;12.94;90.27;101420.17;5292875;54;1141115;-76
2021/10/27 17:21:18;;;;;;;12.07;6.33;;;;;;;12.93;90.31;101422.45;5274346;55;1141031;-74
2021/10/27 17:26:24;;;;;;;9.73;4.67;;;;;;;12.96;90.21;101432.01;5293778;54;1141163;-74
2021/10/27 17:31:30;;;;;;;11.03;5.10;;;;;;;12.95;90.26;101442.26;5285879;55;1139010;-74
2021/10/27 17:36:37;;;;;;;28.17;19.43;;;;;;;12.95;90.26;101437.80;5172307;56;1141219;-75
2021/10/27 17:41:46;;;;;;;5.20;2.57;;;;;;;12.96;90.24;101434.19;5280852;55;1143228;-75
2021/10/27 17:46:59;;;;;;;51.00;15.43;;;;;;;12.95;90.33;101443.11;5264433;55;1138999;-75
2021/10/27 17:57:40;;;;;;;9.50;4.87;;;;;;;12.94;90.40;101453.36;5317608;54;1141168;-74
2021/10/27 18:02:37;;;;;;;10.07;4.67;;;;;;;12.94;90.46;101447.20;5328037;54;1136988;-77
2021/10/27 18:07:43;;;;;;;32.57;11.83;;;;;;;12.94;90.63;101449.86;5302790;55;1139113;-76
2021/10/27 18:12:48;;;;;;;27.53;8.00;;;;;;;12.92;90.66;101453.95;5294939;55;1141120;-74
2021/10/27 18:17:56;;;;;;;20.30;8.43;;;;;;;12.93;90.69;101448.16;5371364;54;1139030;-77
2021/10/27 18:23:22;;;;;;;41.93;15.57;;;;;;;12.91;90.71;101444.76;5308683;54;1139122;-76
2021/10/27 18:28:28;;;;;;;16.93;7.80;;;;;;;12.90;90.70;101445.23;5225527;55;1141247;-74
2021/10/27 18:39:01;;;;;;;26.70;9.80;;;;;;;12.88;90.88;101449.80;5298110;54;1137145;-77
2021/10/27 18:44:06;;;;;;;16.47;6.57;;;;;;;12.87;90.82;101449.91;5325705;54;1137035;-76
2021/10/27 18:49:15;;;;;;;14.17;5.87;;;;;;;12.85;90.97;101445.19;5315873;55;1140940;-75
2021/10/27 18:54:45;;;;;;;17.60;7.67;;;;;;;12.84;90.83;101444.82;5375842;54;1141083;-75
2021/10/27 18:59:48;;;;;;;10.23;5.00;;;;;;;12.83;90.99;101441.83;5373152;54;1141067;-75
2021/10/27 19:15:38;;;;;;;20.47;8.27;;;;;;;12.78;91.13;101450.59;5312501;55;1143210;-76
2021/10/27 19:20:43;;;;;;;20.87;7.70;;;;;;;12.75;91.24;101454.31;5307421;54;1141101;-77
2021/10/27 19:31:44;;;;;;;31.73;10.53;;;;;;;12.72;91.30;101466.95;5399565;54;1141102;-76
2021/10/27 20:09:12;;;;;;;6.83;4.20;;;;;;;12.67;91.16;101490.70;5238022;55;1139116;-77
2021/10/27 20:25:20;;;;;;;11.28;5.37;;;;;;;12.68;91.03;101494.17;5168624;56;1137005;-77
2021/10/27 20:55:59;;;;;;;11.60;6.00;;;;;;;12.67;90.76;101485.88;5268540;55;1138967;-78
2021/10/27 21:01:16;;;;;;;17.23;7.67;;;;;;;12.67;90.77;101493.84;5163510;55;1141111;-77
2021/10/27 21:16:59;;;;;;;6.70;4.55;;;;;;;12.63;90.86;101495.00;5293914;55;1138984;-77
2021/10/27 21:22:06;;;;;;;6.87;5.23;;;;;;;12.59;90.84;101495.69;5325011;55;1139021;-77
2021/10/27 21:27:22;;;;;;;9.53;4.63;;;;;;;12.59;90.86;101497.02;5325346;55;1139019;-78
2021/10/27 21:42:49;;;;;;;22.23;8.13;;;;;;;12.57;91.05;101501.58;5279264;55;1143133;-77
2021/10/27 21:47:57;;;;;;;13.00;5.60;;;;;;;12.57;91.02;101497.59;5310933;55;1141113;-77
2021/10/27 21:53:03;;;;;;;10.37;5.63;;;;;;;12.57;90.98;101499.41;5297747;56;1141237;-77
2021/10/27 21:58:09;;;;;;;9.63;5.00;;;;;;;12.55;90.99;101502.16;5302740;55;1141249;-77
2021/10/27 22:03:18;;;;;;;10.13;5.00;;;;;;;12.55;91.00;101503.48;5303172;55;1136979;-77
2021/10/27 22:08:26;;;;;;;9.27;4.63;;;;;;;12.57;91.00;101500.73;5303481;55;1139031;-77
2021/10/27 22:13:34;;;;;;;10.87;4.60;;;;;;;12.57;90.93;101496.75;5228373;55;1137135;-77
2021/10/27 22:18:40;;;;;;;7.67;4.60;;;;;;;12.56;90.98;101493.72;5225703;55;1139211;-77
2021/10/27 22:23:46;;;;;;;7.47;4.23;;;;;;;12.55;90.88;101484.06;5225476;56;1136822;-77
2021/10/27 22:28:51;;;;;;;5.93;3.73;;;;;;;12.55;90.85;101478.75;5225400;56;1136843;-77
2021/10/27 22:33:57;;;;;;;5.45;4.03;;;;;;;12.56;90.84;101484.44;5225928;56;1136940;-77
2021/10/27 22:39:03;;;;;;;5.60;3.60;;;;;;;12.57;90.82;101480.83;5264589;55;1137164;-77
2021/10/27 22:44:11;;;;;;;8.00;3.60;;;;;;;12.53;90.89;101481.98;5297202;55;1137123;-78
2021/10/27 22:49:18;;;;;;;5.10;3.13;;;;;;;12.53;90.81;101483.31;5318424;55;1137202;-77
2021/10/27 22:54:24;;;;;;;4.93;3.90;;;;;;;12.54;90.80;101487.19;5319223;55;1136965;-77
2021/10/27 22:59:45;;;;;;;7.00;4.23;;;;;;;12.55;90.77;101483.58;5319632;55;1136910;-77
2021/10/27 23:10:04;;;;;;;7.20;3.37;;;;;;;12.57;90.68;101486.98;5290360;56;1134885;-78
2021/10/27 23:15:44;;;;;;;6.60;3.63;;;;;;;12.56;90.71;101479.12;5289640;55;1134865;-77
2021/10/27 23:42:00;;;;;;;3.87;3.50;;;;;;;12.52;90.73;101479.84;5305044;55;1139004;-77
2021/10/27 23:47:07;;;;;;;8.07;3.10;;;;;;;12.51;90.79;101475.50;5304686;54;1139032;-77
2021/10/27 23:52:23;;;;;;;6.50;4.13;;;;;;;12.53;90.72;101481.98;5304776;54;1139074;-77
2021/10/27 23:57:36;;;;;;;4.20;3.77;;;;;;;12.50;90.69;101477.77;5304652;54;1139242;-77
